Terminal Aerodrome Forecast
Issued by NWS

Home | Current Version | Previous Version | Text Only | Print | Product List | Glossary On
Versions: 1 2 3 4 5 6 7 8 9 10 11 12
000
FTUS46 KSGX 302300
TAFPSP
TAF
KPSP 302340Z 3100/3124 VRB05KT P6SM -SHRA OVC080
     FM311200 VRB05KT P6SM VCSH BKN050 OVC070
     FM312000 34009KT P6SM VCSH BKN070 BKN100=

USA.gov is the U.S. government's official web portal to all federal, state and local government web resources and services.